PWSweather.com
Personal Weather Stations
Station Observations
KWIPARKF
Flambeau River State Forest, Park Falls, WI 54552

Flambeau River State ForestPark Falls, WI 54552

Lat: 45.81943, Lon: -90.61676

Elevation: 1476

Station Type: Davis Vantage Pro2 Plus

Latest ConditionsUpdated 8:00:01 PM CDT Monday, Mar 25, 2019
Currently Today's Max Today's Min Today's Average
Temperature 33.9°F1.1°C 42.2°F5.7°C 9.8°F-12.3°C 26.5°F-3.1°C
Dew Point 10.3°F-12.1°C 12.9°F-10.6°C 0.9°F-17.3°C 7.4°F-13.7°C
Winds Calm Calm 1.2 mph -1.9 kmh - - 0.0 mph 0.0 kmh
Wind Gusts -- 4.6 mph7.4 kmh - -
Humidity 37% 92% 20% 52%
Pressure 30.43 in1030.5 mb 30.49 in1032.5 mb 30.39 in1029.1 mb -
Hour Temp Dew Point Humidity Winds Wind Gusts Pressure Precip Precip Rate Daily Precip Total
08:00 PM 33.9°F1.1°C 10.3°F-12.1°C 37% Calm Calm -- 30.43 in1030.5 mb - 0.00 in0.0 mm 0.00 in0.0 mm
07:50 PM 34.6°F1.4°C 11.0°F-11.7°C 37% Calm Calm -- 30.43 in1030.5 mb - 0.00 in0.0 mm 0.00 in0.0 mm
07:40 PM 35.2°F1.8°C 9.6°F-12.4°C 34% Calm Calm -- 30.42 in1030.1 mb - 0.00 in0.0 mm 0.00 in0.0 mm
07:30 PM 36.3°F2.4°C 11.9°F-11.2°C 36% Calm Calm -- 30.42 in1030.1 mb - 0.00 in0.0 mm 0.00 in0.0 mm
07:20 PM 37.6°F3.1°C 8.1°F-13.3°C 29% Calm Calm -- 30.42 in1030.1 mb - 0.00 in0.0 mm 0.00 in0.0 mm
07:10 PM 38.6°F3.7°C 7.4°F-13.7°C 27% Calm Calm -- 30.42 in1030.1 mb - 0.00 in0.0 mm 0.00 in0.0 mm
07:00 PM 39.1°F3.9°C 7.0°F-13.9°C 26% Calm Calm -- 30.41 in1029.8 mb - 0.00 in0.0 mm 0.00 in0.0 mm
06:50 PM 39.4°F4.1°C 7.3°F-13.7°C 26% Calm Calm -- 30.41 in1029.8 mb - 0.00 in0.0 mm 0.00 in0.0 mm
06:40 PM 39.8°F4.3°C 7.6°F-13.6°C 26% Calm Calm -- 30.41 in1029.8 mb - 0.00 in0.0 mm 0.00 in0.0 mm
06:30 PM 40.3°F4.6°C 6.3°F-14.3°C 24% Calm Calm -- 30.41 in1029.8 mb - 0.00 in0.0 mm 0.00 in0.0 mm
06:20 PM 40.4°F4.7°C 8.2°F-13.2°C 26% Calm Calm -- 30.41 in1029.8 mb - 0.00 in0.0 mm 0.00 in0.0 mm
06:10 PM 40.7°F4.8°C 7.5°F-13.6°C 25% Calm Calm -- 30.41 in1029.8 mb - 0.00 in0.0 mm 0.00 in0.0 mm
06:00 PM 41.1°F5.1°C 7.9°F-13.4°C 25% Calm Calm -- 30.41 in1029.8 mb - 0.00 in0.0 mm 0.00 in0.0 mm
05:50 PM 41.0°F5.0°C 6.0°F-14.4°C 23% Calm Calm -- 30.41 in1029.8 mb - 0.00 in0.0 mm 0.00 in0.0 mm
05:40 PM 41.5°F5.3°C 5.4°F-14.8°C 22% Calm Calm 1.2 mph1.9 kmh 30.41 in1029.8 mb - 0.00 in0.0 mm 0.00 in0.0 mm
05:30 PM 41.7°F5.4°C 4.6°F-15.2°C 21% Calm Calm -- 30.41 in1029.8 mb - 0.00 in0.0 mm 0.00 in0.0 mm
05:20 PM 41.7°F5.4°C 6.6°F-14.1°C 23% Calm Calm -- 30.42 in1030.1 mb - 0.00 in0.0 mm 0.00 in0.0 mm
05:10 PM 42.0°F5.6°C 4.9°F-15.1°C 21% Calm Calm -- 30.42 in1030.1 mb - 0.00 in0.0 mm 0.00 in0.0 mm
05:00 PM 41.8°F5.4°C 5.7°F-14.6°C 22% Calm Calm -- 30.42 in1030.1 mb - 0.00 in0.0 mm 0.00 in0.0 mm
04:50 PM 42.0°F5.6°C 3.8°F-15.7°C 20% Calm Calm 4.6 mph7.4 kmh 30.42 in1030.1 mb - 0.00 in0.0 mm 0.00 in0.0 mm
04:40 PM 42.2°F5.7°C 7.0°F-13.9°C 23% Calm Calm -- 30.42 in1030.1 mb - 0.00 in0.0 mm 0.00 in0.0 mm
04:30 PM 42.2°F5.7°C 7.0°F-13.9°C 23% Calm Calm 1.2 mph1.9 kmh 30.43 in1030.5 mb - 0.00 in0.0 mm 0.00 in0.0 mm
04:20 PM 42.2°F5.7°C 8.8°F-12.9°C 25% Calm Calm -- 30.43 in1030.5 mb - 0.00 in0.0 mm 0.00 in0.0 mm
04:10 PM 41.8°F5.4°C 6.7°F-14.1°C 23% Calm Calm -- 30.43 in1030.5 mb - 0.00 in0.0 mm 0.00 in0.0 mm
04:00 PM 42.0°F5.6°C 6.8°F-14.0°C 23% 1.2 mph WSW1.9 kmh WSW 2.3 mph3.7 kmh 30.43 in1030.5 mb - 0.00 in0.0 mm 0.00 in0.0 mm
03:50 PM 41.1°F5.1°C 5.1°F-14.9°C 22% Calm Calm -- 30.43 in1030.5 mb - 0.00 in0.0 mm 0.00 in0.0 mm
03:40 PM 41.4°F5.2°C 4.3°F-15.4°C 21% Calm Calm -- 30.43 in1030.5 mb - 0.00 in0.0 mm 0.00 in0.0 mm
03:30 PM 41.2°F5.1°C 5.1°F-14.9°C 22% 1.2 mph WSW1.9 kmh WSW 3.5 mph5.6 kmh 30.43 in1030.5 mb - 0.00 in0.0 mm 0.00 in0.0 mm
03:20 PM 41.0°F5.0°C 5.0°F-15.0°C 22% Calm Calm -- 30.43 in1030.5 mb - 0.00 in0.0 mm 0.00 in0.0 mm
03:10 PM 40.8°F4.9°C 3.8°F-15.7°C 21% Calm Calm -- 30.43 in1030.5 mb - 0.00 in0.0 mm 0.00 in0.0 mm
03:00 PM 40.4°F4.7°C 2.4°F-16.4°C 20% Calm Calm -- 30.44 in1030.8 mb - 0.00 in0.0 mm 0.00 in0.0 mm
02:50 PM 40.7°F4.8°C 5.7°F-14.6°C 23% Calm Calm -- 30.44 in1030.8 mb - 0.00 in0.0 mm 0.00 in0.0 mm
02:40 PM 40.2°F4.6°C 3.3°F-15.9°C 21% Calm Calm -- 30.44 in1030.8 mb - 0.00 in0.0 mm 0.00 in0.0 mm
02:30 PM 41.0°F5.0°C 6.0°F-14.4°C 23% Calm Calm -- 30.45 in1031.2 mb - 0.00 in0.0 mm 0.00 in0.0 mm
02:20 PM 39.7°F4.3°C 2.9°F-16.2°C 21% Calm Calm -- 30.45 in1031.2 mb - 0.00 in0.0 mm 0.00 in0.0 mm
02:10 PM 38.9°F3.8°C 3.2°F-16.0°C 22% Calm Calm -- 30.45 in1031.2 mb - 0.00 in0.0 mm 0.00 in0.0 mm
02:00 PM 39.6°F4.2°C 6.6°F-14.1°C 25% Calm Calm -- 30.46 in1031.5 mb - 0.00 in0.0 mm 0.00 in0.0 mm
01:50 PM 39.5°F4.2°C 4.7°F-15.2°C 23% Calm Calm -- 30.46 in1031.5 mb - 0.00 in0.0 mm 0.00 in0.0 mm
01:40 PM 38.6°F3.7°C 3.0°F-16.1°C 22% Calm Calm -- 30.47 in1031.8 mb - 0.00 in0.0 mm 0.00 in0.0 mm
01:30 PM 38.5°F3.6°C 3.8°F-15.7°C 23% Calm Calm -- 30.47 in1031.8 mb - 0.00 in0.0 mm 0.00 in0.0 mm
01:20 PM 37.7°F3.2°C 2.2°F-16.6°C 22% Calm Calm -- 30.47 in1031.8 mb - 0.00 in0.0 mm 0.00 in0.0 mm
01:10 PM 37.6°F3.1°C 5.7°F-14.6°C 26% Calm Calm -- 30.48 in1032.2 mb - 0.00 in0.0 mm 0.00 in0.0 mm
01:00 PM 36.8°F2.7°C 2.4°F-16.4°C 23% Calm Calm -- 30.48 in1032.2 mb - 0.00 in0.0 mm 0.00 in0.0 mm
12:50 PM 36.7°F2.6°C 6.6°F-14.1°C 28% Calm Calm -- 30.48 in1032.2 mb - 0.00 in0.0 mm 0.00 in0.0 mm
12:40 PM 35.7°F2.1°C 4.1°F-15.5°C 26% Calm Calm -- 30.48 in1032.2 mb - 0.00 in0.0 mm 0.00 in0.0 mm
12:30 PM 35.3°F1.8°C 2.9°F-16.2°C 25% Calm Calm -- 30.48 in1032.2 mb - 0.00 in0.0 mm 0.00 in0.0 mm
12:20 PM 33.9°F1.1°C 0.9°F-17.3°C 24% Calm Calm -- 30.48 in1032.2 mb - 0.00 in0.0 mm 0.00 in0.0 mm
12:10 PM 34.2°F1.2°C 3.6°F-15.8°C 27% Calm Calm -- 30.49 in1032.5 mb - 0.00 in0.0 mm 0.00 in0.0 mm
12:00 PM 33.7°F0.9°C 3.2°F-16.0°C 27% Calm Calm -- 30.49 in1032.5 mb - 0.00 in0.0 mm 0.00 in0.0 mm
11:50 AM 34.1°F1.2°C 5.9°F-14.5°C 30% Calm Calm -- 30.49 in1032.5 mb - 0.00 in0.0 mm 0.00 in0.0 mm
11:40 AM 33.1°F0.6°C 4.2°F-15.4°C 29% Calm Calm -- 30.49 in1032.5 mb - 0.00 in0.0 mm 0.00 in0.0 mm
11:30 AM 33.3°F0.7°C 5.9°F-14.5°C 31% Calm Calm -- 30.49 in1032.5 mb - 0.00 in0.0 mm 0.00 in0.0 mm
11:20 AM 32.7°F0.4°C 3.9°F-15.6°C 29% Calm Calm -- 30.49 in1032.5 mb - 0.00 in0.0 mm 0.00 in0.0 mm
11:10 AM 32.1°F0.1°C 5.5°F-14.7°C 32% Calm Calm -- 30.49 in1032.5 mb - 0.00 in0.0 mm 0.00 in0.0 mm
11:00 AM 31.3°F-0.4°C 6.8°F-14.0°C 35% Calm Calm -- 30.49 in1032.5 mb - 0.00 in0.0 mm 0.00 in0.0 mm
10:50 AM 30.9°F-0.6°C 6.4°F-14.2°C 35% Calm Calm -- 30.49 in1032.5 mb - 0.00 in0.0 mm 0.00 in0.0 mm
10:40 AM 30.8°F-0.7°C 7.0°F-13.9°C 36% Calm Calm -- 30.49 in1032.5 mb - 0.00 in0.0 mm 0.00 in0.0 mm
10:30 AM 29.9°F-1.2°C 7.9°F-13.4°C 39% Calm Calm -- 30.49 in1032.5 mb - 0.00 in0.0 mm 0.00 in0.0 mm
10:20 AM 29.0°F-1.7°C 8.7°F-12.9°C 42% Calm Calm -- 30.49 in1032.5 mb - 0.00 in0.0 mm 0.00 in0.0 mm
10:10 AM 28.1°F-2.2°C 7.9°F-13.4°C 42% Calm Calm -- 30.49 in1032.5 mb - 0.00 in0.0 mm 0.00 in0.0 mm
10:00 AM 26.9°F-2.8°C 8.9°F-12.8°C 46% Calm Calm -- 30.49 in1032.5 mb - 0.00 in0.0 mm 0.00 in0.0 mm
09:50 AM 25.5°F-3.6°C 9.0°F-12.8°C 49% Calm Calm -- 30.49 in1032.5 mb - 0.00 in0.0 mm 0.00 in0.0 mm
09:40 AM 23.6°F-4.7°C 9.8°F-12.3°C 55% Calm Calm -- 30.49 in1032.5 mb - 0.00 in0.0 mm 0.00 in0.0 mm
09:30 AM 21.7°F-5.7°C 11.4°F-11.4°C 64% Calm Calm -- 30.49 in1032.5 mb - 0.00 in0.0 mm 0.00 in0.0 mm
09:20 AM 19.0°F-7.2°C 12.1°F-11.1°C 74% Calm Calm -- 30.49 in1032.5 mb - 0.00 in0.0 mm 0.00 in0.0 mm
09:10 AM 16.8°F-8.4°C 12.8°F-10.7°C 84% Calm Calm -- 30.49 in1032.5 mb - 0.00 in0.0 mm 0.00 in0.0 mm
09:00 AM 15.3°F-9.3°C 12.9°F-10.6°C 90% Calm Calm -- 30.49 in1032.5 mb - 0.00 in0.0 mm 0.00 in0.0 mm
08:50 AM 13.8°F-10.1°C 12.0°F-11.1°C 92% Calm Calm -- 30.49 in1032.5 mb - 0.00 in0.0 mm 0.00 in0.0 mm
08:40 AM 12.6°F-10.8°C 10.7°F-11.8°C 92% Calm Calm -- 30.48 in1032.2 mb - 0.00 in0.0 mm 0.00 in0.0 mm
08:30 AM 11.6°F-11.3°C 9.7°F-12.4°C 92% Calm Calm -- 30.48 in1032.2 mb - 0.00 in0.0 mm 0.00 in0.0 mm
08:20 AM 10.7°F-11.8°C 8.6°F-13.0°C 91% Calm Calm -- 30.48 in1032.2 mb - 0.00 in0.0 mm 0.00 in0.0 mm
08:10 AM 10.2°F-12.1°C 7.8°F-13.4°C 90% Calm Calm -- 30.48 in1032.2 mb - 0.00 in0.0 mm 0.00 in0.0 mm
08:00 AM 9.9°F-12.3°C 7.3°F-13.7°C 89% Calm Calm -- 30.48 in1032.2 mb - 0.00 in0.0 mm 0.00 in0.0 mm
07:50 AM 9.8°F-12.3°C 7.2°F-13.8°C 89% Calm Calm -- 30.48 in1032.2 mb - 0.00 in0.0 mm 0.00 in0.0 mm
07:40 AM 9.9°F-12.3°C 7.3°F-13.7°C 89% Calm Calm -- 30.47 in1031.8 mb - 0.00 in0.0 mm 0.00 in0.0 mm
07:30 AM 10.0°F-12.2°C 7.4°F-13.7°C 89% Calm Calm -- 30.47 in1031.8 mb - 0.00 in0.0 mm 0.00 in0.0 mm
07:20 AM 10.0°F-12.2°C 7.4°F-13.7°C 89% Calm Calm -- 30.47 in1031.8 mb - 0.00 in0.0 mm 0.00 in0.0 mm
07:10 AM 10.1°F-12.2°C 7.5°F-13.6°C 89% Calm Calm -- 30.47 in1031.8 mb - 0.00 in0.0 mm 0.00 in0.0 mm
07:00 AM 10.1°F-12.2°C 7.3°F-13.7°C 88% Calm Calm -- 30.47 in1031.8 mb - 0.00 in0.0 mm 0.00 in0.0 mm
06:50 AM 10.1°F-12.2°C 7.3°F-13.7°C 88% Calm Calm -- 30.46 in1031.5 mb - 0.00 in0.0 mm 0.00 in0.0 mm
06:40 AM 10.3°F-12.1°C 7.2°F-13.8°C 87% Calm Calm -- 30.46 in1031.5 mb - 0.00 in0.0 mm 0.00 in0.0 mm
06:30 AM 10.5°F-11.9°C 7.1°F-13.8°C 86% Calm Calm -- 30.46 in1031.5 mb - 0.00 in0.0 mm 0.00 in0.0 mm
06:20 AM 10.7°F-11.8°C 7.3°F-13.7°C 86% Calm Calm -- 30.46 in1031.5 mb - 0.00 in0.0 mm 0.00 in0.0 mm
06:10 AM 10.9°F-11.7°C 7.8°F-13.4°C 87% Calm Calm -- 30.45 in1031.2 mb - 0.00 in0.0 mm 0.00 in0.0 mm
06:00 AM 11.2°F-11.6°C 7.8°F-13.4°C 86% Calm Calm -- 30.45 in1031.2 mb - 0.00 in0.0 mm 0.00 in0.0 mm
05:50 AM 11.4°F-11.4°C 8.0°F-13.3°C 86% Calm Calm -- 30.45 in1031.2 mb - 0.00 in0.0 mm 0.00 in0.0 mm
05:40 AM 11.7°F-11.3°C 8.3°F-13.2°C 86% Calm Calm -- 30.44 in1030.8 mb - 0.00 in0.0 mm 0.00 in0.0 mm
05:30 AM 11.9°F-11.2°C 8.5°F-13.1°C 86% Calm Calm -- 30.44 in1030.8 mb - 0.00 in0.0 mm 0.00 in0.0 mm
05:20 AM 12.2°F-11.0°C 8.6°F-13.0°C 85% Calm Calm -- 30.44 in1030.8 mb - 0.00 in0.0 mm 0.00 in0.0 mm
05:10 AM 12.4°F-10.9°C 8.8°F-12.9°C 85% Calm Calm -- 30.44 in1030.8 mb - 0.00 in0.0 mm 0.00 in0.0 mm
05:00 AM 12.7°F-10.7°C 8.8°F-12.9°C 84% Calm Calm -- 30.44 in1030.8 mb - 0.00 in0.0 mm 0.00 in0.0 mm
04:50 AM 12.9°F-10.6°C 9.0°F-12.8°C 84% Calm Calm -- 30.44 in1030.8 mb - 0.00 in0.0 mm 0.00 in0.0 mm
04:40 AM 13.1°F-10.5°C 9.2°F-12.7°C 84% Calm Calm -- 30.43 in1030.5 mb - 0.00 in0.0 mm 0.00 in0.0 mm
04:30 AM 13.4°F-10.3°C 9.2°F-12.7°C 83% Calm Calm -- 30.43 in1030.5 mb - 0.00 in0.0 mm 0.00 in0.0 mm
04:20 AM 13.5°F-10.3°C 9.3°F-12.6°C 83% Calm Calm -- 30.43 in1030.5 mb - 0.00 in0.0 mm 0.00 in0.0 mm
04:10 AM 13.7°F-10.2°C 9.5°F-12.5°C 83% Calm Calm -- 30.43 in1030.5 mb - 0.00 in0.0 mm 0.00 in0.0 mm
04:00 AM 14.0°F-10.0°C 9.5°F-12.5°C 82% Calm Calm -- 30.43 in1030.5 mb - 0.00 in0.0 mm 0.00 in0.0 mm
03:50 AM 14.2°F-9.9°C 9.4°F-12.6°C 81% Calm Calm -- 30.43 in1030.5 mb - 0.00 in0.0 mm 0.00 in0.0 mm
03:40 AM 14.4°F-9.8°C 9.4°F-12.6°C 80% Calm Calm -- 30.42 in1030.1 mb - 0.00 in0.0 mm 0.00 in0.0 mm
03:30 AM 14.7°F-9.6°C 9.4°F-12.6°C 79% Calm Calm -- 30.42 in1030.1 mb - 0.00 in0.0 mm 0.00 in0.0 mm
03:20 AM 14.9°F-9.5°C 9.0°F-12.8°C 77% Calm Calm -- 30.42 in1030.1 mb - 0.00 in0.0 mm 0.00 in0.0 mm
03:10 AM 15.1°F-9.4°C 8.9°F-12.8°C 76% Calm Calm -- 30.42 in1030.1 mb - 0.00 in0.0 mm 0.00 in0.0 mm
03:00 AM 15.3°F-9.3°C 8.5°F-13.1°C 74% Calm Calm -- 30.42 in1030.1 mb - 0.00 in0.0 mm 0.00 in0.0 mm
02:50 AM 15.6°F-9.1°C 8.2°F-13.2°C 72% Calm Calm -- 30.42 in1030.1 mb - 0.00 in0.0 mm 0.00 in0.0 mm
02:40 AM 16.0°F-8.9°C 8.3°F-13.2°C 71% Calm Calm -- 30.42 in1030.1 mb - 0.00 in0.0 mm 0.00 in0.0 mm
02:30 AM 16.3°F-8.7°C 8.3°F-13.2°C 70% Calm Calm -- 30.42 in1030.1 mb - 0.00 in0.0 mm 0.00 in0.0 mm
02:20 AM 16.8°F-8.4°C 8.1°F-13.3°C 68% Calm Calm -- 30.41 in1029.8 mb - 0.00 in0.0 mm 0.00 in0.0 mm
02:10 AM 17.2°F-8.2°C 8.2°F-13.2°C 67% Calm Calm -- 30.41 in1029.8 mb - 0.00 in0.0 mm 0.00 in0.0 mm
02:00 AM 17.8°F-7.9°C 8.0°F-13.3°C 65% Calm Calm -- 30.41 in1029.8 mb - 0.00 in0.0 mm 0.00 in0.0 mm
01:50 AM 18.3°F-7.6°C 8.1°F-13.3°C 64% Calm Calm -- 30.41 in1029.8 mb - 0.00 in0.0 mm 0.00 in0.0 mm
01:40 AM 18.8°F-7.3°C 8.3°F-13.2°C 63% Calm Calm -- 30.41 in1029.8 mb - 0.00 in0.0 mm 0.00 in0.0 mm
01:30 AM 19.3°F-7.1°C 8.8°F-12.9°C 63% Calm Calm -- 30.41 in1029.8 mb - 0.00 in0.0 mm 0.00 in0.0 mm
01:20 AM 19.9°F-6.7°C 8.6°F-13.0°C 61% Calm Calm -- 30.41 in1029.8 mb - 0.00 in0.0 mm 0.00 in0.0 mm
01:10 AM 20.4°F-6.4°C 9.1°F-12.7°C 61% Calm Calm -- 30.41 in1029.8 mb - 0.00 in0.0 mm 0.00 in0.0 mm
01:00 AM 20.9°F-6.2°C 9.2°F-12.7°C 60% Calm Calm -- 30.41 in1029.8 mb - 0.00 in0.0 mm 0.00 in0.0 mm
12:50 AM 21.3°F-5.9°C 8.8°F-12.9°C 58% Calm Calm -- 30.41 in1029.8 mb - 0.00 in0.0 mm 0.00 in0.0 mm
12:40 AM 21.8°F-5.7°C 9.6°F-12.4°C 59% Calm Calm -- 30.41 in1029.8 mb - 0.00 in0.0 mm 0.00 in0.0 mm
12:30 AM 22.1°F-5.5°C 10.3°F-12.1°C 60% Calm Calm -- 30.40 in1029.5 mb - 0.00 in0.0 mm 0.00 in0.0 mm
12:20 AM 22.4°F-5.3°C 10.2°F-12.1°C 59% Calm Calm -- 30.40 in1029.5 mb - 0.00 in0.0 mm 0.00 in0.0 mm
12:10 AM 22.7°F-5.2°C 9.7°F-12.4°C 57% Calm Calm -- 30.40 in1029.5 mb - 0.00 in0.0 mm 0.00 in0.0 mm
12:00 AM 23.0°F-5.0°C 10.0°F-12.2°C 57% Calm Calm -- 30.39 in1029.1 mb - 0.00 in0.0 mm 0.00 in0.0 mm